createdAt,value
2018-06-10T00:02:22.715Z,75.08
2018-06-10T00:04:50.280Z,75.59
2018-06-10T00:07:17.860Z,75.54
2018-06-10T00:09:45.475Z,76.04
2018-06-10T00:12:13.118Z,76.07
2018-06-10T00:14:41.443Z,76.12
2018-06-10T00:17:09.084Z,75.47
2018-06-10T00:19:36.683Z,75.93
2018-06-10T00:22:04.453Z,75.26
2018-06-10T00:24:32.040Z,76.18
2018-06-10T00:26:59.698Z,75.55
2018-06-10T00:29:27.250Z,75.88
2018-06-10T00:31:54.890Z,75.74
2018-06-10T00:34:22.487Z,76.05
2018-06-10T00:36:50.085Z,75.69
2018-06-10T00:39:17.745Z,76.16
2018-06-10T00:41:45.393Z,75.25
2018-06-10T00:44:13.015Z,75.77
2018-06-10T00:46:41.406Z,75.29
2018-06-10T00:49:09.057Z,75.47
2018-06-10T00:51:36.847Z,75.66
2018-06-10T00:54:04.949Z,75.90
2018-06-10T00:56:49.577Z,75.83
2018-06-10T00:59:17.315Z,76.98
2018-06-10T01:01:44.929Z,76.69
2018-06-10T01:04:12.597Z,76.71
2018-06-10T01:06:40.667Z,76.15
2018-06-10T01:09:09.262Z,76.10
2018-06-10T01:11:37.747Z,75.68
2018-06-10T01:14:05.731Z,76.13
2018-06-10T01:16:33.747Z,75.41
2018-06-10T01:19:01.882Z,75.32
2018-06-10T01:21:29.537Z,74.54
2018-06-10T01:23:57.189Z,74.01
2018-06-10T01:26:30.739Z,73.79
2018-06-10T01:28:58.318Z,74.55
2018-06-10T01:31:25.845Z,74.42
2018-06-10T01:33:53.425Z,74.25
2018-06-10T01:36:21.012Z,75.16
2018-06-10T01:38:48.548Z,74.56
2018-06-10T01:41:16.183Z,75.08
2018-06-10T01:43:43.750Z,74.49
2018-06-10T01:46:11.353Z,74.25
2018-06-10T01:48:38.982Z,74.32
2018-06-10T01:51:06.542Z,73.85
2018-06-10T01:53:34.091Z,74.42
2018-06-10T01:56:01.620Z,74.13
2018-06-10T01:58:29.200Z,74.85
2018-06-10T02:00:56.766Z,73.97
2018-06-10T02:03:24.402Z,74.42
2018-06-10T02:05:52.566Z,74.39
2018-06-10T02:08:20.188Z,74.07
2018-06-10T02:10:47.706Z,74.66
2018-06-10T02:13:15.362Z,73.75
2018-06-10T02:15:43.158Z,73.21
2018-06-10T02:18:10.780Z,73.72
2018-06-10T02:20:38.378Z,73.50
2018-06-10T02:23:05.922Z,72.94
2018-06-10T02:25:33.454Z,72.99
2018-06-10T02:28:01.021Z,72.92
2018-06-10T02:30:28.656Z,72.52
2018-06-10T02:32:56.217Z,72.26
2018-06-10T02:35:24.345Z,72.38
2018-06-10T02:37:51.914Z,72.33
2018-06-10T02:40:19.567Z,73.10
2018-06-10T02:42:47.164Z,72.42
2018-06-10T02:45:14.805Z,72.72
2018-06-10T02:47:42.379Z,73.10
2018-06-10T02:50:10.009Z,73.29
2018-06-10T02:52:37.579Z,73.14
2018-06-10T02:55:05.345Z,72.77
2018-06-10T02:57:32.930Z,73.09
2018-06-10T03:00:00.529Z,72.44
2018-06-10T03:02:28.085Z,73.11
2018-06-10T03:04:55.696Z,72.10
2018-06-10T03:07:23.256Z,72.46
2018-06-10T03:09:50.843Z,72.44
2018-06-10T03:12:18.488Z,72.10
2018-06-10T03:14:46.088Z,72.23
2018-06-10T03:17:13.625Z,72.57
2018-06-10T03:19:41.218Z,72.86
2018-06-10T03:22:08.820Z,72.44
2018-06-10T03:24:36.424Z,72.12
2018-06-10T03:27:04.146Z,71.11
2018-06-10T03:29:31.824Z,71.53
2018-06-10T03:31:59.437Z,71.31
2018-06-10T03:34:27.064Z,71.42
2018-06-10T03:36:54.637Z,70.38
2018-06-10T03:39:22.271Z,70.29
2018-06-10T03:41:49.849Z,70.43
2018-06-10T03:44:17.491Z,70.59
2018-06-10T03:46:45.080Z,69.62
2018-06-10T03:49:12.710Z,69.87
2018-06-10T03:51:40.502Z,70.05
2018-06-10T03:54:08.090Z,69.24
2018-06-10T03:56:35.673Z,69.42
2018-06-10T03:59:03.268Z,68.72
2018-06-10T04:01:30.881Z,68.81
2018-06-10T04:03:58.436Z,67.20
2018-06-10T04:06:26.032Z,66.67
2018-06-10T04:08:53.592Z,67.05
2018-06-10T04:11:21.161Z,66.64
2018-06-10T04:13:48.710Z,66.89
2018-06-10T04:16:16.335Z,66.02
2018-06-10T04:18:43.825Z,65.95
2018-06-10T04:21:11.417Z,65.29
2018-06-10T04:23:39.029Z,65.16
2018-06-10T04:26:06.590Z,64.76
2018-06-10T04:28:34.199Z,64.81
2018-06-10T04:31:01.875Z,64.11
2018-06-10T04:33:29.474Z,64.80
2018-06-10T04:35:57.063Z,63.41
2018-06-10T04:38:24.631Z,63.51
2018-06-10T04:40:52.179Z,62.56
2018-06-10T04:43:19.723Z,62.49
2018-06-10T04:45:47.286Z,63.28
2018-06-10T04:48:14.859Z,63.39
2018-06-10T04:50:42.425Z,63.65
2018-06-10T04:53:10.043Z,63.54
2018-06-10T04:55:37.664Z,63.44
2018-06-10T04:58:05.258Z,62.92
2018-06-10T05:00:32.884Z,61.93
2018-06-10T05:03:00.453Z,61.71
2018-06-10T05:05:28.004Z,61.88
2018-06-10T05:07:55.563Z,60.52
2018-06-10T05:10:23.109Z,60.88
2018-06-10T05:12:50.704Z,59.98
2018-06-10T05:15:18.283Z,59.83
2018-06-10T05:17:45.844Z,59.27
2018-06-10T05:20:13.471Z,59.86
2018-06-10T05:22:41.060Z,58.57
2018-06-10T05:25:08.637Z,58.32
2018-06-10T05:27:36.211Z,58.93
2018-06-10T05:30:04.021Z,58.21
2018-06-10T05:32:31.588Z,58.15
2018-06-10T05:34:59.166Z,58.17
2018-06-10T05:37:26.727Z,58.05
2018-06-10T05:39:54.306Z,56.70
2018-06-10T05:42:21.882Z,55.79
2018-06-10T05:44:49.441Z,54.86
2018-06-10T05:47:17.229Z,54.03
2018-06-10T05:49:45.033Z,53.99
2018-06-10T05:52:13.198Z,53.99
2018-06-10T05:54:40.788Z,55.22
2018-06-10T05:57:08.372Z,53.25
2018-06-10T05:59:35.977Z,54.03
2018-06-10T06:02:03.602Z,54.80
2018-06-10T06:04:31.277Z,55.01
2018-06-10T06:06:58.963Z,54.32
2018-06-10T06:09:33.574Z,53.46
2018-06-10T06:12:01.163Z,53.79
2018-06-10T06:14:28.742Z,52.30
2018-06-10T06:16:56.397Z,53.76
2018-06-10T06:19:23.992Z,54.15
2018-06-10T06:21:51.610Z,52.41
2018-06-10T06:24:19.510Z,51.91
2018-06-10T06:26:47.121Z,52.16
2018-06-10T06:29:14.747Z,53.05
2018-06-10T06:31:42.343Z,52.50
2018-06-10T06:34:10.018Z,52.19
2018-06-10T06:36:37.637Z,53.70
2018-06-10T06:39:06.779Z,54.37
2018-06-10T06:41:34.453Z,53.68
2018-06-10T06:44:02.315Z,53.97
2018-06-10T06:46:30.401Z,54.01
2018-06-10T06:48:57.975Z,53.43
2018-06-10T06:51:25.569Z,52.64
2018-06-10T06:53:53.187Z,53.67
2018-06-10T06:56:20.728Z,52.30
2018-06-10T06:58:48.689Z,52.83
2018-06-10T07:01:16.275Z,52.91
2018-06-10T07:03:43.904Z,52.62
2018-06-10T07:06:11.503Z,51.30
2018-06-10T07:08:39.122Z,49.97
2018-06-10T07:11:06.992Z,49.03
2018-06-10T07:13:34.688Z,49.92
2018-06-10T07:16:02.597Z,48.07
2018-06-10T07:18:30.146Z,46.39
2018-06-10T07:20:57.710Z,47.01
2018-06-10T07:23:25.289Z,46.68
2018-06-10T07:25:52.966Z,47.45
2018-06-10T07:28:20.584Z,47.27
2018-06-10T07:30:48.146Z,47.15
2018-06-10T07:33:15.729Z,48.13
2018-06-10T07:35:43.323Z,46.71
2018-06-10T07:38:10.947Z,46.54
2018-06-10T07:40:38.534Z,46.79
2018-06-10T07:43:06.126Z,46.97
2018-06-10T07:45:33.971Z,47.06
2018-06-10T07:48:03.155Z,46.89
2018-06-10T07:50:30.720Z,47.27
2018-06-10T07:52:58.324Z,47.22
2018-06-10T07:55:25.940Z,46.63
2018-06-10T07:57:53.742Z,46.71
2018-06-10T08:00:21.324Z,46.15
2018-06-10T08:02:49.095Z,47.32
2018-06-10T08:05:16.768Z,48.67
2018-06-10T08:07:44.369Z,48.50
2018-06-10T08:10:12.046Z,48.43
2018-06-10T08:12:39.621Z,47.90
2018-06-10T08:15:07.263Z,48.17
2018-06-10T08:17:35.181Z,48.16
2018-06-10T08:20:02.946Z,47.32
2018-06-10T08:22:30.670Z,46.52
2018-06-10T08:24:58.447Z,47.05
2018-06-10T08:27:26.105Z,46.95
2018-06-10T08:29:53.696Z,46.05
2018-06-10T08:32:21.286Z,45.63
2018-06-10T08:37:23.370Z,45.79
2018-06-10T08:39:50.929Z,45.69
2018-06-10T08:42:18.562Z,45.46
2018-06-10T08:44:46.154Z,45.56
2018-06-10T08:47:14.062Z,44.27
2018-06-10T08:49:41.618Z,44.29
2018-06-10T08:52:09.168Z,43.93
2018-06-10T08:54:36.801Z,43.90
2018-06-10T08:57:05.275Z,43.59
2018-06-10T08:59:32.881Z,42.71
2018-06-10T09:02:00.613Z,41.17
2018-06-10T09:04:28.874Z,41.86
2018-06-10T09:06:56.435Z,42.94
2018-06-10T09:09:24.064Z,44.69
2018-06-10T09:11:51.623Z,43.48
2018-06-10T09:14:19.291Z,43.06
2018-06-10T09:16:47.102Z,42.61
2018-06-10T09:19:14.982Z,43.26
2018-06-10T09:21:42.590Z,43.11
2018-06-10T09:24:10.289Z,43.30
2018-06-10T09:26:37.940Z,44.91
2018-06-10T09:29:06.601Z,44.39
2018-06-10T09:31:34.235Z,43.10
2018-06-10T09:34:01.865Z,44.46
2018-06-10T09:36:29.490Z,43.34
2018-06-10T09:38:57.222Z,44.11
2018-06-10T09:41:25.475Z,42.92
2018-06-10T09:43:53.129Z,41.72
2018-06-10T09:46:20.711Z,41.66
2018-06-10T09:48:48.367Z,41.20
2018-06-10T09:51:15.944Z,41.22
2018-06-10T09:53:43.511Z,41.17
2018-06-10T09:56:11.153Z,40.90
2018-06-10T09:58:38.794Z,40.96
2018-06-10T10:01:06.427Z,41.03
2018-06-10T10:03:34.061Z,39.71
2018-06-10T10:06:01.750Z,41.96
2018-06-10T10:08:30.068Z,41.28
2018-06-10T10:10:57.762Z,39.93
2018-06-10T10:13:25.407Z,40.17
2018-06-10T10:15:53.322Z,40.61
2018-06-10T10:18:20.915Z,40.81
2018-06-10T10:20:48.813Z,39.40
2018-06-10T10:23:16.374Z,39.68
2018-06-10T10:25:44.014Z,40.12
2018-06-10T10:28:11.691Z,39.83
2018-06-10T10:30:39.301Z,41.20
2018-06-10T10:33:06.948Z,41.19
2018-06-10T10:35:34.623Z,40.45
2018-06-10T10:38:02.216Z,38.86
2018-06-10T10:40:29.815Z,38.85
2018-06-10T10:42:57.469Z,39.67
2018-06-10T10:45:25.077Z,39.69
2018-06-10T10:47:52.673Z,38.38
2018-06-10T10:50:20.337Z,38.35
2018-06-10T10:52:48.221Z,38.30
2018-06-10T10:55:15.879Z,36.59
2018-06-10T10:57:43.561Z,36.77
2018-06-10T11:00:11.282Z,39.07
2018-06-10T11:02:39.672Z,38.64
2018-06-10T11:05:07.277Z,38.00
2018-06-10T11:07:34.955Z,37.49
2018-06-10T11:10:02.630Z,35.39
2018-06-10T11:12:30.316Z,33.30
2018-06-10T11:14:57.959Z,33.50
2018-06-10T11:17:25.875Z,32.41
2018-06-10T11:19:53.634Z,31.59
2018-06-10T11:22:21.333Z,33.27
2018-06-10T11:24:48.978Z,32.64
2018-06-10T11:27:17.298Z,32.83
2018-06-10T11:29:44.972Z,32.77
2018-06-10T11:32:12.785Z,30.97
2018-06-10T11:34:40.403Z,33.13
2018-06-10T11:37:08.176Z,33.20
2018-06-10T11:39:35.754Z,33.77
2018-06-10T11:42:03.400Z,33.52
2018-06-10T11:44:31.342Z,33.48
2018-06-10T11:46:59.030Z,32.59
2018-06-10T11:49:26.664Z,31.65
2018-06-10T11:51:54.412Z,29.90
2018-06-10T11:54:22.068Z,29.42
2018-06-10T11:56:49.743Z,30.36
2018-06-10T11:59:17.321Z,27.14
2018-06-10T12:01:44.959Z,26.24
2018-06-10T12:04:12.709Z,23.42
2018-06-10T12:06:40.597Z,22.27
2018-06-10T12:09:08.320Z,22.79
2018-06-10T12:11:36.092Z,20.55
2018-06-10T12:14:04.296Z,21.57
2018-06-10T12:16:32.005Z,20.84
2018-06-10T12:19:00.076Z,19.29
2018-06-10T12:21:27.835Z,17.92
2018-06-10T12:23:55.502Z,18.03
2018-06-10T12:26:23.312Z,17.21
2018-06-10T12:28:51.106Z,19.20
2018-06-10T12:31:19.008Z,18.66
2018-06-10T12:33:46.799Z,20.56
2018-06-10T12:36:14.474Z,15.77
2018-06-10T12:38:42.189Z,17.33
2018-06-10T12:41:09.920Z,19.39
2018-06-10T12:43:38.206Z,18.62
2018-06-10T12:46:05.962Z,16.26
2018-06-10T12:48:33.608Z,15.89
2018-06-10T12:51:01.343Z,15.22
2018-06-10T12:53:29.050Z,16.42
2018-06-10T12:55:56.972Z,14.11
2018-06-10T12:58:24.795Z,14.34
2018-06-10T13:00:52.755Z,13.24
2018-06-10T13:03:20.434Z,14.08
2018-06-10T13:05:48.303Z,13.61
2018-06-10T13:08:16.386Z,13.96
2018-06-10T13:10:44.219Z,14.35
2018-06-10T13:13:11.980Z,14.04
2018-06-10T13:15:40.379Z,17.45
2018-06-10T13:18:08.072Z,17.20
2018-06-10T13:20:35.730Z,16.15
2018-06-10T13:23:03.401Z,15.01
2018-06-10T13:25:31.028Z,17.12
2018-06-10T13:27:59.337Z,16.05
2018-06-10T13:30:27.015Z,17.20
2018-06-10T13:32:54.661Z,14.48
2018-06-10T13:35:22.424Z,15.40
2018-06-10T13:37:50.424Z,19.35
2018-06-10T13:40:18.190Z,17.18
2018-06-10T13:42:46.610Z,17.01
2018-06-10T13:45:14.235Z,18.41
2018-06-10T13:47:41.882Z,17.35
2018-06-10T13:50:09.499Z,14.75
2018-06-10T13:52:37.203Z,15.30
2018-06-10T13:55:04.916Z,15.91
2018-06-10T13:57:32.625Z,15.52
2018-06-10T14:00:00.314Z,15.42
2018-06-10T14:02:27.979Z,16.96
2018-06-10T14:04:55.737Z,16.03
2018-06-10T14:07:23.411Z,14.74
2018-06-10T14:09:51.095Z,14.04
2018-06-10T14:12:18.737Z,17.30
2018-06-10T14:14:47.302Z,19.77
2018-06-10T14:17:15.046Z,20.04
2018-06-10T14:19:42.647Z,20.75
2018-06-10T14:22:10.289Z,22.21
2018-06-10T14:24:37.914Z,22.31
2018-06-10T14:27:05.615Z,17.65
2018-06-10T14:29:33.239Z,15.96
2018-06-10T14:32:00.920Z,17.95
2018-06-10T14:34:28.526Z,19.77
2018-06-10T14:36:57.166Z,18.48
2018-06-10T14:39:24.792Z,19.33
2018-06-10T14:41:52.798Z,21.48
2018-06-10T14:44:20.746Z,24.61
2018-06-10T14:46:48.434Z,27.02
2018-06-10T14:49:16.040Z,26.91
2018-06-10T14:51:43.696Z,26.67
2018-06-10T14:54:11.275Z,27.30
2018-06-10T14:56:38.994Z,32.62
2018-06-10T14:59:06.589Z,32.68
2018-06-10T15:01:34.164Z,33.61
2018-06-10T15:04:01.736Z,33.17
2018-06-10T15:06:29.439Z,30.99
2018-06-10T15:08:57.099Z,32.18
2018-06-10T15:11:24.721Z,31.62
2018-06-10T15:13:52.379Z,28.34
2018-06-10T15:16:19.956Z,27.72
2018-06-10T15:18:47.650Z,24.94
2018-06-10T15:21:15.423Z,26.46
2018-06-10T15:23:43.079Z,25.19
2018-06-10T15:26:10.741Z,24.40
2018-06-10T15:28:38.412Z,23.18
2018-06-10T15:31:06.227Z,20.41
2018-06-10T15:33:34.122Z,19.79
2018-06-10T15:36:02.561Z,22.06
2018-06-10T15:38:30.290Z,25.14
2018-06-10T15:40:57.946Z,25.80
2018-06-10T15:43:25.898Z,29.13
2018-06-10T15:45:53.540Z,30.67
2018-06-10T15:48:21.123Z,30.87
2018-06-10T15:50:48.799Z,29.40
2018-06-10T15:53:16.448Z,29.27
2018-06-10T15:55:44.101Z,29.85
2018-06-10T15:58:11.707Z,29.93
2018-06-10T16:00:39.447Z,30.74
2018-06-10T16:03:07.090Z,30.83
2018-06-10T16:05:35.094Z,31.32
2018-06-10T16:08:02.842Z,32.75
2018-06-10T16:10:30.523Z,34.10
2018-06-10T16:12:58.931Z,34.30
2018-06-10T16:15:31.802Z,35.47
2018-06-10T16:17:59.506Z,33.95
2018-06-10T16:20:27.116Z,31.76
2018-06-10T16:22:54.730Z,31.96
2018-06-10T16:25:22.377Z,30.58
2018-06-10T16:27:50.082Z,25.70
2018-06-10T16:30:17.791Z,26.40
2018-06-10T16:32:45.446Z,25.44
2018-06-10T16:35:13.065Z,27.40
2018-06-10T16:37:40.639Z,27.83
2018-06-10T16:40:08.309Z,25.01
2018-06-10T16:42:35.921Z,21.15
2018-06-10T16:45:04.605Z,22.38
2018-06-10T16:47:32.303Z,24.63
2018-06-10T16:49:59.891Z,25.46
2018-06-10T16:52:27.517Z,27.45
2018-06-10T16:54:55.193Z,30.99
2018-06-10T16:57:22.854Z,34.44
2018-06-10T16:59:50.620Z,36.46
2018-06-10T17:02:18.312Z,38.59
2018-06-10T17:04:45.978Z,40.07
2018-06-10T17:07:13.596Z,41.26
2018-06-10T17:09:41.200Z,41.89
2018-06-10T17:12:08.874Z,43.35
2018-06-10T17:14:36.490Z,44.31
2018-06-10T17:17:04.297Z,44.65
2018-06-10T17:19:32.141Z,45.21
2018-06-10T17:21:59.913Z,46.76
2018-06-10T17:24:27.744Z,46.51
2018-06-10T17:26:55.583Z,46.53
2018-06-10T17:29:23.239Z,46.98
2018-06-10T17:31:50.919Z,46.38
2018-06-10T17:34:18.710Z,47.18
2018-06-10T17:36:46.386Z,47.02
2018-06-10T17:39:14.062Z,48.16
2018-06-10T17:41:41.731Z,48.83
2018-06-10T17:44:10.305Z,48.78
2018-06-10T17:46:38.286Z,50.08
2018-06-10T17:49:05.930Z,52.64
2018-06-10T17:51:33.579Z,58.12
2018-06-10T17:54:01.842Z,70.06
2018-06-10T17:56:29.580Z,86.71
2018-06-10T17:58:57.898Z,93.15
2018-06-10T18:01:26.178Z,96.43
2018-06-10T18:03:53.966Z,98.17
2018-06-10T18:06:21.701Z,98.18
2018-06-10T18:08:49.358Z,99.46
2018-06-10T18:11:17.029Z,100.00
2018-06-10T18:13:44.933Z,100.00
2018-06-10T18:16:16.022Z,100.00
2018-06-10T18:18:43.716Z,100.00
2018-06-10T18:21:11.485Z,100.00
2018-06-10T18:23:39.567Z,100.00
2018-06-10T18:26:07.336Z,100.00
2018-06-10T18:28:35.053Z,100.00
2018-06-10T18:31:03.013Z,100.00
2018-06-10T18:33:30.824Z,100.00
2018-06-10T18:36:00.417Z,100.00
2018-06-10T18:38:28.401Z,99.61
2018-06-10T18:40:56.210Z,98.58
2018-06-10T18:43:25.137Z,98.70
2018-06-10T18:45:52.894Z,97.60
2018-06-10T18:48:20.868Z,99.33
2018-06-10T18:50:48.972Z,98.85
2018-06-10T18:53:16.845Z,97.89
2018-06-10T18:55:44.757Z,98.46
2018-06-10T18:58:12.487Z,94.46
2018-06-10T19:00:40.225Z,95.64
2018-06-10T19:03:08.703Z,98.16
2018-06-10T19:05:36.510Z,98.55
2018-06-10T19:08:04.789Z,98.75
2018-06-10T19:10:32.641Z,98.90
2018-06-10T19:13:00.980Z,98.15
2018-06-10T19:15:29.207Z,96.72
2018-06-10T19:17:57.139Z,97.46
2018-06-10T19:20:24.825Z,97.85
2018-06-10T19:22:52.705Z,97.46
2018-06-10T19:25:20.651Z,97.43
2018-06-10T19:27:48.599Z,97.55
2018-06-10T19:30:16.329Z,97.39
2018-06-10T19:32:44.035Z,92.59
2018-06-10T19:35:12.782Z,95.07
2018-06-10T19:37:41.086Z,95.42
2018-06-10T19:40:08.857Z,94.59
2018-06-10T19:42:36.700Z,94.41
2018-06-10T19:45:04.620Z,96.07
2018-06-10T19:47:32.526Z,94.53
2018-06-10T19:50:00.287Z,95.78
2018-06-10T19:52:28.565Z,96.76
2018-06-10T19:54:56.262Z,95.23
2018-06-10T19:57:23.891Z,97.09
2018-06-10T19:59:51.633Z,96.14
2018-06-10T20:02:20.125Z,95.25
2018-06-10T20:04:47.803Z,94.99
2018-06-10T20:07:15.501Z,95.98
2018-06-10T20:09:43.189Z,94.77
2018-06-10T20:12:10.865Z,95.62
2018-06-10T20:14:38.518Z,95.15
2018-06-10T20:17:06.208Z,96.52
2018-06-10T20:19:33.940Z,96.96
2018-06-10T20:22:01.748Z,97.19
2018-06-10T20:24:29.358Z,96.46
2018-06-10T20:26:57.038Z,94.40
2018-06-10T20:29:24.641Z,94.07
2018-06-10T20:31:52.334Z,96.43
2018-06-10T20:34:19.941Z,95.51
2018-06-10T20:36:47.594Z,95.60
2018-06-10T20:39:15.338Z,97.27
2018-06-10T20:41:43.001Z,97.05
2018-06-10T20:44:10.745Z,95.19
2018-06-10T20:46:38.439Z,95.08
2018-06-10T20:49:06.237Z,94.75
2018-06-10T20:51:33.881Z,93.66
2018-06-10T20:54:01.552Z,94.88
2018-06-10T20:56:29.193Z,95.01
2018-06-10T21:01:39.411Z,94.54
2018-06-10T21:04:07.021Z,95.37
2018-06-10T21:06:34.722Z,94.69
2018-06-10T21:09:03.376Z,94.14
2018-06-10T21:11:31.048Z,94.87
2018-06-10T21:13:58.722Z,94.97
2018-06-10T21:16:26.366Z,93.75
2018-06-10T21:18:54.037Z,94.22
2018-06-10T21:21:21.705Z,95.20
2018-06-10T21:23:49.326Z,93.27
2018-06-10T21:26:16.980Z,94.32
2018-06-10T21:28:44.616Z,93.79
2018-06-10T21:31:12.309Z,92.38
2018-06-10T21:33:39.982Z,93.55
2018-06-10T21:36:07.479Z,94.63
2018-06-10T21:38:35.127Z,95.06
2018-06-10T21:41:02.758Z,94.63
2018-06-10T21:43:30.421Z,94.69
2018-06-10T21:45:58.091Z,93.54
2018-06-10T21:48:25.759Z,94.30
2018-06-10T21:50:53.367Z,93.77
2018-06-10T21:53:21.036Z,93.74
2018-06-10T21:55:48.628Z,93.62
2018-06-10T21:58:16.241Z,93.80
2018-06-10T22:00:44.351Z,94.41
2018-06-10T22:03:12.453Z,93.45
2018-06-10T22:05:40.102Z,94.18
2018-06-10T22:08:07.654Z,93.06
2018-06-10T22:10:35.256Z,93.69
2018-06-10T22:13:02.914Z,93.37
2018-06-10T22:15:30.540Z,93.42
2018-06-10T22:17:58.133Z,93.07
2018-06-10T22:20:25.863Z,93.54
2018-06-10T22:22:53.476Z,93.77
2018-06-10T22:25:21.054Z,93.88
2018-06-10T22:27:48.747Z,93.39
2018-06-10T22:30:16.343Z,93.71
2018-06-10T22:32:43.998Z,93.35
2018-06-10T22:35:11.613Z,92.84
2018-06-10T22:37:39.273Z,92.48
2018-06-10T22:40:06.917Z,92.91
2018-06-10T22:42:34.509Z,93.18
2018-06-10T22:45:02.238Z,92.73
2018-06-10T22:47:29.913Z,92.94
2018-06-10T22:49:57.509Z,92.96
2018-06-10T22:52:25.119Z,92.19
2018-06-10T22:54:52.707Z,93.46
2018-06-10T22:57:20.334Z,92.96
2018-06-10T22:59:47.971Z,94.19
2018-06-10T23:02:16.127Z,94.03
2018-06-10T23:04:43.749Z,94.56
2018-06-10T23:07:11.459Z,94.82
2018-06-10T23:09:39.101Z,94.59
2018-06-10T23:12:06.794Z,93.99
2018-06-10T23:14:34.361Z,93.83
2018-06-10T23:17:01.994Z,94.30
2018-06-10T23:19:29.707Z,94.63
2018-06-10T23:21:57.341Z,94.17
2018-06-10T23:24:24.915Z,94.54
2018-06-10T23:26:52.544Z,94.51
2018-06-10T23:29:20.193Z,93.75
2018-06-10T23:31:47.862Z,93.91
2018-06-10T23:34:15.467Z,93.46
2018-06-10T23:36:43.049Z,94.03
2018-06-10T23:39:10.635Z,94.37
2018-06-10T23:41:38.190Z,92.69
2018-06-10T23:44:05.820Z,91.46
2018-06-10T23:46:33.423Z,90.78
2018-06-10T23:49:01.070Z,90.46
2018-06-10T23:51:28.664Z,89.79
2018-06-10T23:53:56.236Z,90.49
2018-06-10T23:56:23.844Z,91.21
2018-06-10T23:58:51.476Z,90.40
